Time;durP1;ratioP1;P1;durP2;ratioP2;P2;SDS_P1;SDS_P2;PMS_P1;PMS_P2;Temp;Humidity;BMP_temperature;BMP_pressure;BME280_temperature;BME280_humidity;BME280_pressure;Samples;Min_cycle;Max_cycle;Signal;HPM_P1;HPM_P2
2022/09/06 00:00:15;;;;;;;6.77;4.90;;;20.40;79.30;;;;;;5009455;28;20515;-71
2022/09/06 00:02:42;;;;;;;6.73;5.47;;;20.40;79.30;;;;;;5025535;28;20476;-73
2022/09/06 00:05:09;;;;;;;7.57;5.00;;;20.40;79.60;;;;;;5027343;28;20485;-76
2022/09/06 00:07:35;;;;;;;8.80;4.70;;;20.30;80.20;;;;;;5030826;28;20414;-73
2022/09/06 00:10:01;;;;;;;6.90;5.17;;;20.30;80.20;;;;;;5027041;28;20444;-73
2022/09/06 00:12:27;;;;;;;7.00;4.83;;;20.40;80.00;;;;;;5033091;28;20275;-73
2022/09/06 00:14:53;;;;;;;8.90;4.60;;;20.40;79.60;;;;;;5032357;28;20497;-72
2022/09/06 00:17:19;;;;;;;9.43;5.60;;;20.30;79.90;;;;;;5034441;28;20863;-72
2022/09/06 00:19:45;;;;;;;7.30;4.63;;;20.20;79.90;;;;;;5029219;28;20187;-73
2022/09/06 00:22:10;;;;;;;9.10;5.50;;;20.20;80.20;;;;;;5009920;28;20477;-71
2022/09/06 00:24:37;;;;;;;8.83;5.07;;;20.20;80.30;;;;;;5027430;28;20437;-71
2022/09/06 00:27:04;;;;;;;6.00;4.90;;;20.10;80.50;;;;;;5031350;28;20189;-71
2022/09/06 00:29:30;;;;;;;6.47;4.40;;;20.10;80.50;;;;;;5025870;28;20424;-71
2022/09/06 00:31:55;;;;;;;6.83;4.37;;;20.10;80.90;;;;;;5027716;28;20468;-71
2022/09/06 00:34:21;;;;;;;7.07;4.43;;;20.00;81.10;;;;;;5013880;28;20181;-71
2022/09/06 00:36:47;;;;;;;9.43;5.47;;;20.10;81.10;;;;;;5028544;28;20383;-70
2022/09/06 00:39:12;;;;;;;8.90;4.50;;;20.10;80.80;;;;;;5025519;28;20267;-70
2022/09/06 00:41:38;;;;;;;9.03;4.80;;;20.00;81.20;;;;;;5025117;28;20207;-71
2022/09/06 00:44:04;;;;;;;7.47;4.80;;;20.00;81.10;;;;;;5022933;28;20300;-71
2022/09/06 00:46:31;;;;;;;8.43;5.63;;;19.90;80.90;;;;;;5008331;28;20181;-71
2022/09/06 00:49:32;;;;;;;7.50;4.90;;;19.80;81.40;;;;;;5026864;28;20186;-70
2022/09/06 00:52:02;;;;;;;8.70;5.70;;;19.90;80.90;;;;;;4930668;29;20468;-71
2022/09/06 00:54:28;;;;;;;9.40;5.50;;;19.90;80.80;;;;;;4931363;29;20440;-72
2022/09/06 00:56:56;;;;;;;7.83;5.23;;;19.80;80.90;;;;;;4931753;29;21018;-71
2022/09/06 00:59:24;;;;;;;9.73;5.40;;;19.70;81.40;;;;;;4931500;29;20504;-70
2022/09/06 01:01:50;;;;;;;8.90;5.47;;;19.70;81.70;;;;;;4930769;29;21357;-70
2022/09/06 01:04:16;;;;;;;8.70;5.73;;;19.70;81.50;;;;;;4932866;29;20491;-71
2022/09/06 01:06:55;;;;;;;7.93;5.17;;;19.70;81.50;;;;;;4932895;29;20256;-72
2022/09/06 01:09:45;;;;;;;8.57;5.53;;;19.60;81.80;;;;;;4932618;29;20717;-70
2022/09/06 01:12:35;;;;;;;7.70;5.47;;;19.60;81.80;;;;;;4927616;29;20829;-71
2022/09/06 01:15:12;;;;;;;6.50;4.90;;;19.60;81.90;;;;;;4917312;29;20491;-71
2022/09/06 01:17:47;;;;;;;7.57;5.77;;;19.60;82.10;;;;;;4933172;29;20450;-71
2022/09/06 01:20:40;;;;;;;8.30;5.53;;;19.60;81.90;;;;;;4926819;29;20479;-71
2022/09/06 01:23:30;;;;;;;8.50;4.90;;;19.60;81.80;;;;;;4926906;29;20504;-70
2022/09/06 01:26:29;;;;;;;5.80;4.67;;;19.50;82.50;;;;;;4928693;29;21002;-70
2022/09/06 01:28:55;;;;;;;10.07;5.17;;;19.60;82.40;;;;;;5022204;28;20423;-72
2022/09/06 01:31:30;;;;;;;7.00;5.00;;;19.60;82.50;;;;;;5024389;28;20424;-73
2022/09/06 01:34:04;;;;;;;7.80;4.93;;;19.60;82.50;;;;;;5022578;28;20823;-72
2022/09/06 01:36:39;;;;;;;9.87;5.30;;;19.60;82.20;;;;;;5025812;28;20458;-70
2022/09/06 01:39:05;;;;;;;6.67;5.40;;;19.70;82.40;;;;;;5028638;28;20424;-71
2022/09/06 01:41:32;;;;;;;7.87;5.03;;;19.70;82.20;;;;;;5024193;28;20546;-72
2022/09/06 01:43:58;;;;;;;9.13;4.83;;;19.70;82.40;;;;;;5028333;28;20197;-72
2022/09/06 01:46:30;;;;;;;6.30;4.67;;;19.70;82.20;;;;;;5029330;28;20485;-70
2022/09/06 01:49:41;;;;;;;8.73;4.70;;;19.60;82.20;;;;;;5029579;28;20424;-70
2022/09/06 01:52:22;;;;;;;7.73;5.13;;;19.60;82.20;;;;;;4953892;28;20478;-71
2022/09/06 01:55:02;;;;;;;6.80;4.90;;;19.60;82.10;;;;;;4952143;29;20423;-71
2022/09/06 01:57:45;;;;;;;8.50;5.00;;;19.60;82.40;;;;;;4950997;28;20814;-72
2022/09/06 02:00:16;;;;;;;8.90;5.83;;;19.50;82.20;;;;;;4954462;29;20418;-71
2022/09/06 02:03:18;;;;;;;8.57;5.90;;;19.60;82.10;;;;;;4935044;29;20481;-72
2022/09/06 02:05:54;;;;;;;7.13;4.80;;;19.60;81.80;;;;;;4950142;28;20426;-72
2022/09/06 02:08:31;;;;;;;6.23;4.93;;;19.60;81.80;;;;;;4952598;29;20432;-71
2022/09/06 02:11:08;;;;;;;8.57;5.30;;;19.50;81.90;;;;;;4955929;29;20430;-69
2022/09/06 02:14:03;;;;;;;9.37;4.80;;;19.50;82.10;;;;;;4955151;28;20560;-70
2022/09/06 02:16:33;;;;;;;5.73;4.47;;;19.50;82.10;;;;;;4853320;29;20462;-69
2022/09/06 02:19:07;;;;;;;8.30;5.30;;;19.50;82.20;;;;;;4862841;29;20507;-70
2022/09/06 02:21:37;;;;;;;7.80;5.73;;;19.50;82.20;;;;;;4862236;29;21269;-68
2022/09/06 02:24:07;;;;;;;7.57;5.67;;;19.50;82.40;;;;;;4863965;29;20496;-69
2022/09/06 02:26:37;;;;;;;8.53;5.67;;;19.50;81.90;;;;;;4861932;29;20432;-70
2022/09/06 02:29:03;;;;;;;8.10;5.50;;;19.50;81.70;;;;;;4923119;29;20448;-70
2022/09/06 02:31:46;;;;;;;6.83;5.20;;;19.60;81.50;;;;;;4936638;29;20428;-69
2022/09/06 02:34:14;;;;;;;7.70;5.60;;;19.70;81.50;;;;;;4930020;29;20432;-71
2022/09/06 02:36:40;;;;;;;9.00;5.37;;;19.80;80.80;;;;;;4931622;29;20428;-71
2022/09/06 02:39:06;;;;;;;13.20;5.77;;;19.90;80.00;;;;;;4938440;29;20439;-69
2022/09/06 02:41:32;;;;;;;7.67;4.93;;;20.00;79.50;;;;;;4939324;29;20212;-72
2022/09/06 02:43:58;;;;;;;7.70;5.40;;;20.00;79.30;;;;;;4935227;29;20516;-71
2022/09/06 02:46:24;;;;;;;8.17;5.60;;;20.10;78.90;;;;;;4923488;29;20499;-70
2022/09/06 02:48:50;;;;;;;10.37;5.57;;;20.10;78.70;;;;;;4939774;29;20196;-70
2022/09/06 02:51:16;;;;;;;8.07;5.30;;;20.30;78.10;;;;;;4940835;29;20276;-70
2022/09/06 02:53:42;;;;;;;11.40;5.90;;;20.20;77.80;;;;;;5005589;28;21068;-70
2022/09/06 02:56:08;;;;;;;7.50;5.40;;;20.30;79.30;;;;;;5036472;28;20236;-71
2022/09/06 02:58:33;;;;;;;8.60;5.90;;;20.40;79.60;;;;;;5028940;28;20514;-70
2022/09/06 03:00:59;;;;;;;11.87;7.10;;;20.40;81.50;;;;;;5033340;28;20325;-70
2022/09/06 03:03:26;;;;;;;13.80;7.60;;;20.40;82.80;;;;;;5006617;28;20658;-71
2022/09/06 03:05:53;;;;;;;12.60;7.23;;;20.30;85.90;;;;;;5030604;28;20602;-70
2022/09/06 03:08:20;;;;;;;11.50;6.47;;;20.20;87.80;;;;;;5027475;28;20439;-72
2022/09/06 03:10:51;;;;;;;14.27;8.00;;;20.00;88.40;;;;;;5029661;28;20430;-71
2022/09/06 03:13:17;;;;;;;12.50;6.90;;;19.80;89.30;;;;;;5024402;28;20809;-72
2022/09/06 03:15:43;;;;;;;14.37;7.30;;;19.70;90.20;;;;;;5027921;28;20420;-71
2022/09/06 03:18:08;;;;;;;14.47;8.37;;;19.60;90.40;;;;;;5024029;28;20184;-71
2022/09/06 03:20:34;;;;;;;12.50;7.63;;;19.40;90.80;;;;;;5027723;28;20437;-73
2022/09/06 03:22:59;;;;;;;9.80;6.90;;;19.30;91.10;;;;;;5030134;28;20489;-73
2022/09/06 03:25:25;;;;;;;15.03;7.93;;;19.20;91.50;;;;;;5014687;28;20631;-71
2022/09/06 03:27:51;;;;;;;15.20;7.20;;;19.20;91.60;;;;;;5014879;28;20186;-72
2022/09/06 03:30:17;;;;;;;10.10;6.80;;;19.30;91.90;;;;;;5015113;28;20177;-72
2022/09/06 03:32:43;;;;;;;11.80;7.37;;;19.20;91.60;;;;;;5029973;28;20473;-72
2022/09/06 03:35:09;;;;;;;17.00;7.40;;;19.10;91.20;;;;;;5032739;28;20181;-74
2022/09/06 03:37:34;;;;;;;10.80;6.77;;;18.90;91.40;;;;;;5012667;28;20232;-75
2022/09/06 03:40:00;;;;;;;16.87;7.83;;;19.00;91.70;;;;;;5031597;28;20464;-73
2022/09/06 03:42:26;;;;;;;10.90;7.47;;;19.00;92.20;;;;;;5029663;28;20226;-72
2022/09/06 03:44:52;;;;;;;11.43;8.03;;;18.90;92.50;;;;;;5030701;28;20442;-74
2022/09/06 03:47:19;;;;;;;13.93;7.60;;;18.80;93.00;;;;;;5029288;28;20441;-73
2022/09/06 03:49:45;;;;;;;11.63;8.13;;;18.80;93.20;;;;;;5029646;28;20422;-74
2022/09/06 03:52:11;;;;;;;11.33;7.97;;;18.70;93.50;;;;;;5027061;28;20463;-72
2022/09/06 03:54:36;;;;;;;12.83;8.10;;;18.70;93.90;;;;;;5029202;28;20511;-72
2022/09/06 03:57:02;;;;;;;14.07;7.17;;;18.70;94.40;;;;;;5026770;28;20715;-71
2022/09/06 03:59:28;;;;;;;10.03;6.60;;;18.70;94.50;;;;;;5028758;28;20205;-73
2022/09/06 04:01:53;;;;;;;15.50;9.20;;;18.60;94.60;;;;;;5009644;28;20217;-72
2022/09/06 04:04:19;;;;;;;13.37;8.30;;;18.60;94.90;;;;;;5026902;28;20194;-72
2022/09/06 04:06:44;;;;;;;15.07;8.60;;;18.40;94.90;;;;;;5027139;28;20182;-74
2022/09/06 04:09:10;;;;;;;16.97;9.10;;;18.40;95.00;;;;;;5032158;28;20229;-73
2022/09/06 04:11:36;;;;;;;10.20;7.63;;;18.40;95.00;;;;;;5028085;28;20185;-72
2022/09/06 04:14:01;;;;;;;11.50;7.90;;;18.40;95.30;;;;;;5031159;28;20183;-71
2022/09/06 04:16:27;;;;;;;10.30;7.60;;;18.40;95.30;;;;;;5031349;28;20247;-73
2022/09/06 04:18:52;;;;;;;13.43;8.23;;;18.40;95.20;;;;;;5031390;28;20183;-73
2022/09/06 04:21:18;;;;;;;10.97;7.70;;;18.40;95.00;;;;;;5013312;28;20830;-74
2022/09/06 04:23:44;;;;;;;12.40;8.80;;;18.40;94.90;;;;;;5030015;28;20280;-75
2022/09/06 04:26:09;;;;;;;10.03;7.27;;;18.40;95.00;;;;;;5031524;28;20175;-72
2022/09/06 04:28:35;;;;;;;14.07;8.17;;;18.50;95.30;;;;;;5031568;28;20232;-74
2022/09/06 04:31:03;;;;;;;10.90;7.80;;;18.50;95.40;;;;;;5027844;28;20589;-72
2022/09/06 04:33:31;;;;;;;14.90;7.10;;;18.50;95.20;;;;;;5026731;28;20251;-74
2022/09/06 04:35:59;;;;;;;12.20;8.23;;;18.50;95.10;;;;;;5028373;28;20464;-74
2022/09/06 04:38:27;;;;;;;16.03;7.67;;;18.40;95.00;;;;;;5028974;28;20430;-72
2022/09/06 04:40:54;;;;;;;11.97;6.90;;;18.50;95.30;;;;;;5029219;28;20426;-71
2022/09/06 04:43:20;;;;;;;11.03;7.47;;;18.50;95.40;;;;;;5030536;28;20496;-76
2022/09/06 04:45:46;;;;;;;10.70;8.30;;;18.60;95.30;;;;;;5024896;28;20473;-72
2022/09/06 04:48:12;;;;;;;10.97;6.50;;;18.60;95.20;;;;;;5031490;28;20474;-75
2022/09/06 04:50:38;;;;;;;10.47;6.57;;;18.60;95.10;;;;;;5024587;28;20189;-72
2022/09/06 04:53:05;;;;;;;9.20;7.03;;;18.60;95.00;;;;;;5030834;28;20247;-71
2022/09/06 04:55:31;;;;;;;13.40;7.87;;;18.50;94.80;;;;;;5021479;28;20432;-73
2022/09/06 04:58:00;;;;;;;12.03;8.87;;;18.50;94.40;;;;;;5028561;28;20421;-72
2022/09/06 05:00:26;;;;;;;14.10;8.20;;;18.40;94.20;;;;;;5030802;28;20431;-71
2022/09/06 05:02:52;;;;;;;13.23;8.73;;;18.30;94.10;;;;;;5026542;28;20566;-72
2022/09/06 05:05:18;;;;;;;13.83;8.70;;;18.30;94.20;;;;;;5030713;28;20499;-71
2022/09/06 05:07:43;;;;;;;13.10;8.30;;;18.30;94.50;;;;;;5029577;28;20629;-72
2022/09/06 05:10:09;;;;;;;8.83;7.30;;;18.30;94.50;;;;;;5029993;28;20178;-72
2022/09/06 05:12:34;;;;;;;11.70;7.17;;;18.30;93.20;;;;;;5028088;28;20215;-72
2022/09/06 05:15:00;;;;;;;9.90;7.00;;;18.40;93.10;;;;;;5034258;28;20190;-73
2022/09/06 05:17:26;;;;;;;9.90;7.57;;;18.40;92.90;;;;;;5030630;28;20193;-72
2022/09/06 05:19:51;;;;;;;9.70;7.17;;;18.40;92.60;;;;;;5027101;28;20258;-72
2022/09/06 05:22:17;;;;;;;11.87;7.50;;;18.40;92.90;;;;;;5026937;28;20222;-72
2022/09/06 05:24:42;;;;;;;14.13;8.20;;;18.50;93.20;;;;;;5023579;28;20214;-71
2022/09/06 05:27:08;;;;;;;11.60;8.37;;;18.60;93.20;;;;;;5028186;28;20247;-71
2022/09/06 05:29:34;;;;;;;11.63;7.27;;;18.50;93.20;;;;;;5006326;28;20195;-72
2022/09/06 05:31:59;;;;;;;13.50;7.70;;;18.50;93.40;;;;;;5023937;28;20214;-72
2022/09/06 05:34:25;;;;;;;9.83;7.40;;;18.50;93.40;;;;;;5025918;28;20189;-72
2022/09/06 05:36:51;;;;;;;10.63;7.60;;;18.60;93.40;;;;;;5009242;28;20237;-72
2022/09/06 05:39:20;;;;;;;11.70;7.63;;;18.60;93.40;;;;;;5024678;28;20246;-73
2022/09/06 05:41:45;;;;;;;12.47;8.23;;;18.50;93.40;;;;;;5024175;28;20460;-72
2022/09/06 05:44:11;;;;;;;10.37;8.10;;;18.50;93.80;;;;;;5006022;28;20449;-73
2022/09/06 05:46:44;;;;;;;11.10;7.40;;;18.50;94.00;;;;;;5025478;28;20209;-73
2022/09/06 05:49:10;;;;;;;15.17;7.93;;;18.60;94.00;;;;;;5004909;28;20177;-72
2022/09/06 05:51:36;;;;;;;15.80;8.83;;;18.60;94.10;;;;;;5023530;28;20424;-72
2022/09/06 05:54:02;;;;;;;12.57;8.43;;;18.60;94.20;;;;;;5030701;28;20436;-72
2022/09/06 05:56:27;;;;;;;14.90;8.87;;;18.70;94.20;;;;;;5030328;28;20195;-73
2022/09/06 05:58:53;;;;;;;16.17;9.30;;;18.80;94.20;;;;;;5012276;28;20188;-72
2022/09/06 06:01:20;;;;;;;10.13;8.00;;;18.80;93.80;;;;;;5030290;28;20690;-74
2022/09/06 06:04:03;;;;;;;11.37;8.07;;;18.80;93.70;;;;;;5024366;28;20259;-73
2022/09/06 06:06:31;;;;;;;12.63;7.97;;;18.90;93.80;;;;;;5024204;28;20446;-73
2022/09/06 06:08:57;;;;;;;13.43;8.77;;;18.90;93.50;;;;;;5028074;28;20426;-73
2022/09/06 06:11:24;;;;;;;11.43;7.97;;;19.00;93.50;;;;;;5028228;28;20437;-72
2022/09/06 06:13:50;;;;;;;11.80;8.67;;;19.00;93.60;;;;;;5024393;28;20549;-72
2022/09/06 06:16:18;;;;;;;11.30;8.57;;;19.10;93.10;;;;;;5022727;28;20511;-73
2022/09/06 06:18:44;;;;;;;15.00;9.67;;;19.00;92.50;;;;;;5009432;28;20188;-74
2022/09/06 06:21:19;;;;;;;13.73;8.63;;;19.10;92.20;;;;;;5026134;28;20440;-72
2022/09/06 06:23:46;;;;;;;12.07;8.10;;;19.10;91.80;;;;;;5023057;28;20243;-74
2022/09/06 06:26:12;;;;;;;12.27;7.97;;;19.10;91.80;;;;;;5023397;28;20420;-73
2022/09/06 06:28:38;;;;;;;13.30;8.80;;;19.30;92.10;;;;;;5025966;28;20419;-72
2022/09/06 06:31:05;;;;;;;13.67;8.93;;;19.40;92.20;;;;;;5022527;28;20558;-73
2022/09/06 06:33:31;;;;;;;12.13;8.53;;;19.40;91.90;;;;;;5023063;28;20825;-73
2022/09/06 06:36:20;;;;;;;13.33;8.30;;;19.50;91.80;;;;;;5027436;28;20416;-73
2022/09/06 06:38:45;;;;;;;13.10;8.10;;;19.50;91.70;;;;;;5030944;28;20606;-74
2022/09/06 06:41:13;;;;;;;10.40;7.63;;;19.60;91.60;;;;;;5033752;28;20558;-73
2022/09/06 06:43:38;;;;;;;10.83;7.20;;;19.60;90.50;;;;;;5032994;28;20256;-73
2022/09/06 06:46:04;;;;;;;11.30;8.43;;;19.60;90.40;;;;;;5035828;28;20868;-73
2022/09/06 06:48:30;;;;;;;11.47;8.93;;;19.50;90.10;;;;;;5034087;28;20181;-73
2022/09/06 06:50:56;;;;;;;13.77;8.93;;;19.50;90.20;;;;;;5036675;28;20423;-72
2022/09/06 06:53:22;;;;;;;14.80;9.07;;;19.50;90.20;;;;;;5029176;28;20467;-73
2022/09/06 06:55:48;;;;;;;13.60;7.67;;;19.60;90.20;;;;;;5041959;28;20414;-74
2022/09/06 06:58:15;;;;;;;12.07;8.30;;;19.70;89.90;;;;;;5030704;28;20430;-72
2022/09/06 07:00:41;;;;;;;14.03;8.70;;;19.80;89.20;;;;;;5025997;28;20177;-75
2022/09/06 07:03:08;;;;;;;15.27;9.17;;;20.00;88.90;;;;;;5016052;28;20476;-75
2022/09/06 07:05:33;;;;;;;10.90;7.03;;;20.10;89.20;;;;;;5032172;28;20424;-75
2022/09/06 07:07:59;;;;;;;12.37;8.60;;;20.20;89.20;;;;;;5030606;28;20428;-75
2022/09/06 07:10:25;;;;;;;15.00;7.40;;;20.40;89.00;;;;;;5013325;28;20179;-76
2022/09/06 07:12:51;;;;;;;11.87;7.80;;;20.60;88.70;;;;;;5014292;28;20588;-77
2022/09/06 07:15:17;;;;;;;14.07;8.63;;;20.70;88.10;;;;;;5029277;28;20189;-74
2022/09/06 07:17:43;;;;;;;22.30;8.60;;;20.80;87.30;;;;;;5024807;28;20219;-76
2022/09/06 07:20:09;;;;;;;10.37;7.40;;;20.90;87.30;;;;;;5010463;28;20908;-76
2022/09/06 07:22:35;;;;;;;14.60;8.33;;;20.90;87.40;;;;;;5028550;28;20228;-77
2022/09/06 07:25:02;;;;;;;11.37;7.90;;;20.90;86.60;;;;;;5009253;28;20801;-75
2022/09/06 07:27:28;;;;;;;16.23;7.10;;;21.00;86.80;;;;;;5029186;28;20465;-74
2022/09/06 07:29:53;;;;;;;13.07;8.20;;;21.10;85.70;;;;;;5034566;28;20424;-74
2022/09/06 07:32:19;;;;;;;9.70;6.97;;;21.10;84.70;;;;;;5033245;28;20225;-75
2022/09/06 07:34:44;;;;;;;12.90;6.83;;;20.90;83.30;;;;;;5032736;28;20191;-75
2022/09/06 07:37:10;;;;;;;11.67;7.00;;;20.80;82.50;;;;;;5029929;28;20178;-75
2022/09/06 07:39:35;;;;;;;13.70;6.93;;;20.90;83.30;;;;;;5030932;28;20231;-75
2022/09/06 07:42:02;;;;;;;9.67;6.57;;;21.00;83.80;;;;;;5027322;28;20591;-74
2022/09/06 07:44:28;;;;;;;9.73;6.60;;;20.90;83.10;;;;;;5012268;28;20215;-75
2022/09/06 07:46:54;;;;;;;15.07;6.20;;;21.00;83.10;;;;;;5027554;28;20425;-75
2022/09/06 07:49:20;;;;;;;12.27;7.77;;;21.10;83.00;;;;;;5029853;28;20235;-75
2022/09/06 07:51:47;;;;;;;9.47;6.10;;;21.10;81.70;;;;;;5026050;28;20469;-75
2022/09/06 07:54:12;;;;;;;12.17;7.27;;;21.10;82.80;;;;;;5031731;28;20318;-74
2022/09/06 07:56:38;;;;;;;12.93;7.23;;;21.10;82.20;;;;;;5032730;28;20948;-75
2022/09/06 07:59:04;;;;;;;10.63;6.23;;;21.20;82.70;;;;;;5026686;28;20212;-74
2022/09/06 08:01:39;;;;;;;9.73;6.50;;;21.30;80.00;;;;;;5014593;28;20191;-75
2022/09/06 08:04:14;;;;;;;10.10;5.93;;;21.40;81.20;;;;;;5025957;28;20190;-75
2022/09/06 08:06:42;;;;;;;7.77;5.13;;;21.60;81.70;;;;;;5014656;28;20410;-74
2022/09/06 08:09:09;;;;;;;8.00;5.50;;;21.70;80.80;;;;;;5032872;28;20415;-75
2022/09/06 08:11:36;;;;;;;9.73;5.87;;;21.80;78.30;;;;;;5032178;28;20422;-73
2022/09/06 08:14:04;;;;;;;11.77;5.70;;;21.90;79.20;;;;;;5026188;28;20426;-76
2022/09/06 08:16:31;;;;;;;9.67;5.57;;;21.90;77.00;;;;;;5031881;28;20419;-73
2022/09/06 08:18:58;;;;;;;12.87;5.50;;;22.00;77.60;;;;;;5031180;28;20930;-74
2022/09/06 08:21:27;;;;;;;9.20;5.60;;;22.20;76.50;;;;;;5030900;28;20435;-74
2022/09/06 08:23:58;;;;;;;7.67;5.57;;;22.30;75.90;;;;;;5029250;28;20523;-71
2022/09/06 08:26:24;;;;;;;7.57;5.03;;;22.40;75.70;;;;;;5024566;28;20446;-75
2022/09/06 08:28:56;;;;;;;8.20;5.33;;;22.60;75.10;;;;;;5028684;28;20514;-73
2022/09/06 08:31:21;;;;;;;9.83;6.70;;;22.70;74.90;;;;;;5006446;28;20518;-72
2022/09/06 08:33:47;;;;;;;11.40;6.07;;;22.80;75.20;;;;;;5025349;28;20569;-75
2022/09/06 08:36:13;;;;;;;11.30;5.63;;;22.80;75.10;;;;;;5030957;28;20185;-73
2022/09/06 08:38:39;;;;;;;8.00;5.60;;;22.90;75.10;;;;;;5030839;28;20192;-74
2022/09/06 08:41:22;;;;;;;8.47;5.60;;;23.00;75.70;;;;;;5028605;28;20219;-72
2022/09/06 08:43:53;;;;;;;8.10;5.30;;;23.10;74.50;;;;;;5021878;28;20565;-73
2022/09/06 08:46:23;;;;;;;6.97;4.90;;;23.20;73.60;;;;;;5027291;28;20416;-74
2022/09/06 08:48:49;;;;;;;11.30;5.90;;;23.40;72.70;;;;;;5025736;28;20423;-72
2022/09/06 08:51:23;;;;;;;6.77;4.83;;;23.60;71.70;;;;;;5026817;28;20428;-73
2022/09/06 08:53:50;;;;;;;11.30;5.77;;;23.70;71.40;;;;;;5021385;28;20200;-73
2022/09/06 08:56:27;;;;;;;10.03;5.43;;;23.90;71.10;;;;;;5025711;28;20551;-75
2022/09/06 08:58:52;;;;;;;8.40;5.07;;;24.00;71.40;;;;;;5025459;28;20423;-71
2022/09/06 09:01:28;;;;;;;11.63;5.50;;;24.10;71.00;;;;;;5029313;28;20415;-75
2022/09/06 09:03:57;;;;;;;9.73;5.60;;;24.20;70.80;;;;;;5021629;28;20195;-72
2022/09/06 09:06:24;;;;;;;11.30;5.27;;;24.40;70.40;;;;;;5026592;28;20425;-73
2022/09/06 09:09:02;;;;;;;10.20;5.87;;;24.50;70.10;;;;;;5028337;28;20448;-73
2022/09/06 09:11:32;;;;;;;9.93;5.63;;;24.70;69.40;;;;;;5028373;28;20426;-73
2022/09/06 09:14:15;;;;;;;8.60;5.20;;;24.90;67.70;;;;;;5027444;28;20450;-74
2022/09/06 09:16:41;;;;;;;9.40;5.50;;;25.10;66.40;;;;;;5025716;28;20416;-73
2022/09/06 09:19:08;;;;;;;10.57;5.07;;;25.10;67.00;;;;;;5027754;28;20466;-73
2022/09/06 09:21:37;;;;;;;10.53;5.17;;;25.30;66.70;;;;;;5029373;28;20419;-71
2022/09/06 09:24:06;;;;;;;9.80;5.60;;;25.40;66.40;;;;;;5023747;28;20437;-75
2022/09/06 09:26:40;;;;;;;9.33;5.57;;;25.60;66.30;;;;;;5010949;28;20430;-72
2022/09/06 09:29:11;;;;;;;8.50;5.13;;;25.70;65.70;;;;;;5021658;28;20989;-73
2022/09/06 09:31:49;;;;;;;12.80;5.53;;;25.80;65.60;;;;;;5023385;28;20421;-72
2022/09/06 09:34:36;;;;;;;9.17;6.20;;;25.80;65.30;;;;;;5024663;28;20414;-72
2022/09/06 09:37:23;;;;;;;8.93;5.10;;;25.90;65.10;;;;;;5024266;28;20414;-73
2022/09/06 09:39:53;;;;;;;9.30;5.37;;;26.00;65.60;;;;;;5026715;28;20521;-71
2022/09/06 09:42:34;;;;;;;11.73;5.50;;;25.90;65.60;;;;;;5020420;28;20485;-74
2022/09/06 09:45:01;;;;;;;29.23;6.70;;;26.00;65.70;;;;;;5027124;28;20467;-73
2022/09/06 09:47:28;;;;;;;9.73;4.97;;;26.10;65.30;;;;;;5028872;28;20429;-75
2022/09/06 09:49:55;;;;;;;11.53;5.10;;;26.10;65.30;;;;;;5024550;28;20924;-73
2022/09/06 09:52:29;;;;;;;7.63;5.53;;;26.20;65.00;;;;;;5020525;28;20465;-72
2022/09/06 09:55:00;;;;;;;6.63;4.93;;;26.30;64.70;;;;;;5029396;28;20436;-76
2022/09/06 09:57:28;;;;;;;10.70;5.77;;;26.40;64.40;;;;;;5029837;28;20498;-74
2022/09/06 09:59:57;;;;;;;8.67;5.50;;;26.50;64.80;;;;;;5029442;28;20425;-75
2022/09/06 10:02:37;;;;;;;10.20;5.60;;;26.60;64.40;;;;;;5026559;28;20499;-75
2022/09/06 10:05:03;;;;;;;11.10;5.63;;;26.80;63.90;;;;;;5028737;28;20485;-74
2022/09/06 10:07:31;;;;;;;9.63;5.60;;;26.90;63.90;;;;;;5028218;28;20918;-72
2022/09/06 10:10:04;;;;;;;12.37;5.13;;;27.00;63.80;;;;;;5027151;28;20243;-73
2022/09/06 10:12:37;;;;;;;11.67;5.73;;;27.20;63.40;;;;;;5029638;28;20469;-72
2022/09/06 10:15:04;;;;;;;10.73;5.53;;;27.30;62.60;;;;;;5030469;28;20955;-74
2022/09/06 10:17:33;;;;;;;11.87;5.33;;;27.50;62.90;;;;;;5032682;28;20433;-75
2022/09/06 10:20:17;;;;;;;20.93;5.73;;;27.70;62.80;;;;;;5030141;28;20474;-75
2022/09/06 10:23:05;;;;;;;10.40;5.40;;;27.90;60.70;;;;;;5028868;28;20507;-76
2022/09/06 10:25:38;;;;;;;12.33;5.00;;;28.00;61.60;;;;;;5032605;28;20859;-74
2022/09/06 10:28:19;;;;;;;9.70;4.27;;;28.20;59.50;;;;;;5032105;28;20839;-74
2022/09/06 10:31:42;;;;;;;6.40;3.13;;;28.10;56.00;;;;;;5034443;28;20452;-73
2022/09/06 10:34:16;;;;;;;7.03;3.77;;;27.90;52.20;;;;;;4956515;28;20430;-73
2022/09/06 10:37:11;;;;;;;6.60;4.40;;;28.00;55.30;;;;;;4952461;29;20514;-75
2022/09/06 10:39:44;;;;;;;7.43;4.17;;;28.20;56.10;;;;;;4950979;29;20431;-74
2022/09/06 10:42:42;;;;;;;7.97;4.67;;;28.50;55.80;;;;;;4949790;28;20550;-73
2022/09/06 10:45:20;;;;;;;8.90;4.63;;;28.70;54.90;;;;;;4946074;29;20491;-72
2022/09/06 10:48:07;;;;;;;7.47;4.20;;;28.60;54.80;;;;;;4953817;29;20415;-70
2022/09/06 10:50:42;;;;;;;9.20;4.90;;;28.40;55.80;;;;;;4954029;29;20431;-70
2022/09/06 10:53:27;;;;;;;10.27;5.20;;;28.30;56.60;;;;;;4953589;28;20833;-71
2022/09/06 10:56:19;;;;;;;9.63;5.80;;;28.50;56.60;;;;;;4953926;29;20431;-70
2022/09/06 10:58:56;;;;;;;7.17;4.17;;;28.60;56.80;;;;;;4945924;29;20446;-70
2022/09/06 11:01:32;;;;;;;11.30;5.10;;;28.60;56.20;;;;;;4953583;29;20420;-70
2022/09/06 11:03:59;;;;;;;11.70;5.10;;;28.50;57.00;;;;;;4972003;28;20451;-70
2022/09/06 11:06:32;;;;;;;8.97;4.80;;;28.50;57.80;;;;;;5010792;28;20861;-70
2022/09/06 11:09:22;;;;;;;6.57;4.43;;;28.40;57.40;;;;;;5034574;28;20434;-70
2022/09/06 11:12:15;;;;;;;9.60;5.07;;;28.50;56.40;;;;;;5031650;28;20420;-72
2022/09/06 11:14:41;;;;;;;13.03;5.53;;;28.60;57.00;;;;;;5015135;28;20429;-71
2022/09/06 11:17:27;;;;;;;7.37;5.23;;;28.80;56.60;;;;;;5033095;28;20420;-73
2022/09/06 11:20:12;;;;;;;10.83;5.63;;;28.90;56.40;;;;;;5028555;28;20178;-70
2022/09/06 11:23:08;;;;;;;11.67;5.63;;;28.90;56.90;;;;;;5024599;28;20482;-70
2022/09/06 11:25:52;;;;;;;11.30;5.50;;;28.90;56.80;;;;;;5030477;28;20933;-71
2022/09/06 11:28:35;;;;;;;13.13;5.50;;;29.00;57.00;;;;;;5033205;28;20420;-71
2022/09/06 11:31:02;;;;;;;18.00;6.30;;;29.10;57.60;;;;;;5038315;28;21064;-70
2022/09/06 11:33:34;;;;;;;11.10;5.40;;;29.30;58.00;;;;;;5032306;28;20981;-70
2022/09/06 11:36:32;;;;;;;12.07;5.90;;;29.40;58.00;;;;;;5032126;28;20436;-71
2022/09/06 11:39:01;;;;;;;9.23;5.83;;;29.60;57.20;;;;;;5030966;28;20424;-71
2022/09/06 11:41:32;;;;;;;11.00;6.30;;;29.70;57.00;;;;;;5031899;28;20412;-71
2022/09/06 11:43:59;;;;;;;13.17;5.50;;;29.90;56.20;;;;;;5028320;28;20487;-71
2022/09/06 11:46:33;;;;;;;8.33;5.20;;;30.00;56.10;;;;;;5030028;28;20538;-72
2022/09/06 11:49:06;;;;;;;9.70;5.60;;;30.00;55.70;;;;;;5012613;28;20449;-70
2022/09/06 11:51:37;;;;;;;9.80;4.93;;;30.30;55.00;;;;;;5028538;28;20511;-70
2022/09/06 11:54:17;;;;;;;13.37;6.90;;;30.30;54.80;;;;;;5028786;28;20462;-72
2022/09/06 11:56:45;;;;;;;9.00;5.87;;;30.50;54.40;;;;;;5025901;28;20405;-70
2022/09/06 11:59:17;;;;;;;9.70;5.90;;;30.60;54.40;;;;;;5032931;28;20408;-71
2022/09/06 12:01:55;;;;;;;10.03;6.07;;;30.60;53.80;;;;;;5025095;28;20452;-70
2022/09/06 12:04:22;;;;;;;14.33;6.07;;;30.70;53.70;;;;;;5021987;28;20830;-70
2022/09/06 12:07:10;;;;;;;14.80;6.07;;;30.60;54.00;;;;;;5025918;28;20927;-71
2022/09/06 12:09:42;;;;;;;8.73;6.07;;;30.20;54.80;;;;;;5028922;28;20919;-73
2022/09/06 12:12:09;;;;;;;11.57;5.93;;;29.90;55.70;;;;;;5025955;28;20472;-70
2022/09/06 12:14:45;;;;;;;12.53;6.37;;;30.20;54.90;;;;;;5030508;28;20459;-69
2022/09/06 12:17:13;;;;;;;9.03;5.50;;;30.90;54.40;;;;;;5007774;28;20423;-72
2022/09/06 12:19:43;;;;;;;11.80;6.03;;;31.60;52.50;;;;;;5024599;28;20939;-71
2022/09/06 12:22:39;;;;;;;12.47;5.67;;;32.10;50.70;;;;;;5027126;28;20558;-70
2022/09/06 12:25:17;;;;;;;8.33;5.77;;;32.30;50.30;;;;;;5023227;28;20770;-73
2022/09/06 12:27:57;;;;;;;9.00;5.33;;;32.00;51.20;;;;;;5013327;28;20482;-72
2022/09/06 12:30:36;;;;;;;12.10;5.57;;;31.90;50.50;;;;;;5031085;28;20435;-73
2022/09/06 12:33:09;;;;;;;10.90;5.47;;;31.90;50.90;;;;;;5026196;28;20495;-71
2022/09/06 12:35:35;;;;;;;12.23;5.30;;;32.10;49.80;;;;;;5029510;28;20439;-70
2022/09/06 12:38:04;;;;;;;9.90;4.90;;;32.10;49.70;;;;;;5030298;28;20503;-71
2022/09/06 12:40:33;;;;;;;6.93;5.83;;;31.40;50.90;;;;;;5038571;28;20182;-70
2022/09/06 12:43:02;;;;;;;12.23;6.20;;;30.80;51.80;;;;;;5037379;28;20475;-71
2022/09/06 12:45:27;;;;;;;9.70;6.30;;;29.50;54.90;;;;;;5032592;28;20445;-71
2022/09/06 12:48:08;;;;;;;10.03;5.90;;;28.20;59.60;;;;;;5035670;28;20522;-70
2022/09/06 12:50:36;;;;;;;10.50;6.37;;;27.80;62.20;;;;;;5032130;28;20247;-72
2022/09/06 12:53:03;;;;;;;9.07;6.20;;;27.40;64.40;;;;;;5032429;28;20489;-70
2022/09/06 12:55:34;;;;;;;10.63;6.30;;;27.20;67.20;;;;;;5034711;28;20926;-71
2022/09/06 12:58:11;;;;;;;15.03;6.97;;;27.20;68.20;;;;;;5031364;28;20498;-69